Time,TemperatureF,DewpointF,PressureIn,WindDirection,WindDirectionDegrees,WindSpeedMPH,WindSpeedGustMPH,Humidity,HourlyPrecipIn,Conditions,Clouds,dailyrainin,SoftwareType,DateUTC
2013-04-05 00:01:00,47.5,-48.5,29.83,WNW,292,8.3,-999.0,1,-99.99,,,0.00,Acu-Link.com,2013-04-05 05:01:00,
2013-04-05 00:16:00,47.5,-48.5,29.84,WNW,292,5.3,-999.0,1,-99.99,,,0.00,Acu-Link.com,2013-04-05 05:16:00,
2013-04-05 00:31:00,47.5,-48.5,29.84,NW,315,8.9,-999.0,1,-99.99,,,0.00,Acu-Link.com,2013-04-05 05:31:00,
2013-04-05 01:02:00,47.5,-48.5,29.84,WNW,292,5.8,-999.0,1,-99.99,,,0.00,Acu-Link.com,2013-04-05 06:02:00,
2013-04-05 01:17:00,47.5,-48.5,29.84,NW,315,5.3,-999.0,1,-99.99,,,0.00,Acu-Link.com,2013-04-05 06:17:00,
2013-04-05 01:32:00,47.5,-48.5,29.84,West,270,6.8,-999.0,1,-99.99,,,0.00,Acu-Link.com,2013-04-05 06:32:00,
2013-04-05 01:47:00,47.5,-48.5,29.84,NW,315,6.8,-999.0,1,-99.99,,,0.00,Acu-Link.com,2013-04-05 06:47:00,
2013-04-05 02:02:00,47.5,-48.5,29.85,NW,315,10.9,-999.0,1,-99.99,,,0.00,Acu-Link.com,2013-04-05 07:02:00,
2013-04-05 02:17:00,47.7,-48.4,29.84,WSW,247,7.3,-999.0,1,-99.99,,,0.00,Acu-Link.com,2013-04-05 07:17:00,
2013-04-05 02:33:00,47.7,-48.4,29.84,WNW,292,10.4,-999.0,1,-99.99,,,0.00,Acu-Link.com,2013-04-05 07:33:00,
2013-04-05 02:48:00,47.8,-48.3,29.85,NW,315,5.8,-999.0,1,-99.99,,,0.00,Acu-Link.com,2013-04-05 07:48:00,
2013-04-05 03:03:00,47.7,-48.4,29.84,NNW,337,6.8,-999.0,1,-99.99,,,0.00,Acu-Link.com,2013-04-05 08:03:00,
2013-04-05 03:18:00,47.7,-48.4,29.84,West,270,8.9,-999.0,1,-99.99,,,0.00,Acu-Link.com,2013-04-05 08:18:00,
2013-04-05 03:33:00,47.7,-48.4,29.84,West,270,5.3,-999.0,1,-99.99,,,0.00,Acu-Link.com,2013-04-05 08:33:00,
2013-04-05 03:48:00,47.7,-48.4,29.83,West,270,4.7,-999.0,1,-99.99,,,0.00,Acu-Link.com,2013-04-05 08:48:00,
2013-04-05 04:03:00,47.3,-48.6,29.83,North,0,2.7,-999.0,1,-99.99,,,0.00,Acu-Link.com,2013-04-05 09:03:00,
2013-04-05 04:34:00,46.4,-49.2,29.84,NW,315,5.8,-999.0,1,-99.99,,,0.00,Acu-Link.com,2013-04-05 09:34:00,
2013-04-05 04:49:00,45.9,-49.5,29.84,WNW,292,3.7,-999.0,1,-99.99,,,0.00,Acu-Link.com,2013-04-05 09:49:00,
2013-04-05 05:04:00,45.9,-49.5,29.84,NW,315,7.8,-999.0,1,-99.99,,,0.00,Acu-Link.com,2013-04-05 10:04:00,
2013-04-05 05:19:00,45.7,-49.6,29.84,NNW,337,7.3,-999.0,1,-99.99,,,0.00,Acu-Link.com,2013-04-05 10:19:00,
2013-04-05 05:35:00,45.3,-49.8,29.85,West,270,3.7,-999.0,1,-99.99,,,0.00,Acu-Link.com,2013-04-05 10:35:00,
2013-04-05 06:05:00,45.0,-50.0,29.86,WNW,292,4.7,-999.0,1,-99.99,,,0.00,Acu-Link.com,2013-04-05 11:05:00,
2013-04-05 06:20:00,44.8,-50.1,29.87,WNW,292,5.8,-999.0,1,-99.99,,,0.00,Acu-Link.com,2013-04-05 11:20:00,
2013-04-05 06:35:00,44.4,-50.4,29.88,WNW,292,3.7,-999.0,1,-99.99,,,0.00,Acu-Link.com,2013-04-05 11:35:00,
2013-04-05 06:50:00,44.1,-50.6,29.88,West,270,3.2,-999.0,1,-99.99,,,0.00,Acu-Link.com,2013-04-05 11:50:00,
2013-04-05 07:05:00,43.9,-50.7,29.89,West,270,2.7,-999.0,1,-99.99,,,0.00,Acu-Link.com,2013-04-05 12:05:00,
2013-04-05 07:20:00,44.8,-50.1,29.90,WNW,292,2.7,-999.0,1,-99.99,,,0.00,Acu-Link.com,2013-04-05 12:20:00,
2013-04-05 07:51:00,48.0,-48.2,29.92,WNW,292,3.7,-999.0,1,-99.99,,,0.00,Acu-Link.com,2013-04-05 12:51:00,
2013-04-05 08:06:00,49.3,-47.4,29.92,WSW,247,2.7,-999.0,1,-99.99,,,0.00,Acu-Link.com,2013-04-05 13:06:00,
2013-04-05 08:22:00,50.4,-46.7,29.92,NNE,22,8.3,-999.0,1,-99.99,,,0.00,Acu-Link.com,2013-04-05 13:22:00,
2013-04-05 08:37:00,51.6,-46.0,29.92,North,0,3.7,-999.0,1,-99.99,,,0.00,Acu-Link.com,2013-04-05 13:37:00,
2013-04-05 08:52:00,52.0,-45.7,29.93,NW,315,9.4,-999.0,1,-99.99,,,0.00,Acu-Link.com,2013-04-05 13:52:00,
2013-04-05 09:08:00,52.0,-45.7,29.92,North,0,5.8,-999.0,1,-99.99,,,0.00,Acu-Link.com,2013-04-05 14:08:00,
2013-04-05 09:23:00,53.6,-44.7,29.93,NE,45,8.3,-999.0,1,-99.99,,,0.00,Acu-Link.com,2013-04-05 14:23:00,
2013-04-05 09:53:00,54.9,-44.0,29.93,WNW,292,8.9,-999.0,1,-99.99,,,0.00,Acu-Link.com,2013-04-05 14:53:00,
2013-04-05 10:08:00,55.9,-43.3,29.93,NNW,337,8.9,-999.0,1,-99.99,,,0.00,Acu-Link.com,2013-04-05 15:08:00,
2013-04-05 10:23:00,57.4,-42.4,29.93,NW,315,7.8,-999.0,1,-99.99,,,0.00,Acu-Link.com,2013-04-05 15:23:00,
2013-04-05 10:38:00,58.3,-41.9,29.94,North,0,6.8,-999.0,1,-99.99,,,0.00,Acu-Link.com,2013-04-05 15:38:00,
2013-04-05 10:53:00,58.3,-41.9,29.94,NW,315,7.8,-999.0,1,-99.99,,,0.00,Acu-Link.com,2013-04-05 15:53:00,
2013-04-05 11:08:00,59.5,-41.2,29.93,NNW,337,8.3,-999.0,1,-99.99,,,0.00,Acu-Link.com,2013-04-05 16:08:00,
2013-04-05 11:23:00,60.3,-40.7,29.93,NE,45,11.9,-999.0,1,-99.99,,,0.00,Acu-Link.com,2013-04-05 16:23:00,
2013-04-05 11:38:00,61.7,-39.8,29.93,North,0,4.7,-999.0,1,-99.99,,,0.00,Acu-Link.com,2013-04-05 16:38:00,
2013-04-05 11:53:00,63.0,-39.0,29.92,NNE,22,4.7,-999.0,1,-99.99,,,0.00,Acu-Link.com,2013-04-05 16:53:00,
2013-04-05 12:08:00,63.1,-39.0,29.91,ENE,67,5.3,-999.0,1,-99.99,,,0.00,Acu-Link.com,2013-04-05 17:08:00,
2013-04-05 12:23:00,64.2,-38.3,29.91,North,0,7.8,-999.0,1,-99.99,,,0.00,Acu-Link.com,2013-04-05 17:23:00,
2013-04-05 13:09:00,66.4,-37.0,29.90,East,90,5.8,-999.0,1,-99.99,,,0.00,Acu-Link.com,2013-04-05 18:09:00,
2013-04-05 13:39:00,67.1,-36.6,29.88,NE,45,9.9,-999.0,1,-99.99,,,0.00,Acu-Link.com,2013-04-05 18:39:00,
2013-04-05 13:54:00,68.4,-35.8,29.87,NE,45,9.4,-999.0,1,-99.99,,,0.00,Acu-Link.com,2013-04-05 18:54:00,
2013-04-05 14:10:00,68.2,-35.9,29.86,NNE,22,7.3,-999.0,1,-99.99,,,0.00,Acu-Link.com,2013-04-05 19:10:00,
2013-04-05 14:25:00,68.5,-35.7,29.86,NNW,337,7.8,-999.0,1,-99.99,,,0.00,Acu-Link.com,2013-04-05 19:25:00,
2013-04-05 14:40:00,69.3,-35.2,29.85,NNE,22,8.3,-999.0,1,-99.99,,,0.00,Acu-Link.com,2013-04-05 19:40:00,
2013-04-05 14:55:00,69.6,-35.1,29.85,NE,45,7.3,-999.0,1,-99.99,,,0.00,Acu-Link.com,2013-04-05 19:55:00,
2013-04-05 15:10:00,68.9,-35.5,29.84,NNE,22,7.3,-999.0,1,-99.99,,,0.00,Acu-Link.com,2013-04-05 20:10:00,
2013-04-05 15:25:00,69.3,-35.2,29.84,NE,45,6.8,-999.0,1,-99.99,,,0.00,Acu-Link.com,2013-04-05 20:25:00,
2013-04-05 15:40:00,70.0,-34.8,29.83,NNE,22,6.8,-999.0,1,-99.99,,,0.00,Acu-Link.com,2013-04-05 20:40:00,
2013-04-05 15:55:00,70.3,-34.6,29.82,NNW,337,7.3,-999.0,1,-99.99,,,0.00,Acu-Link.com,2013-04-05 20:55:00,
2013-04-05 16:11:00,71.1,-34.2,29.81,WNW,292,5.3,-999.0,1,-99.99,,,0.00,Acu-Link.com,2013-04-05 21:11:00,
2013-04-05 16:26:00,71.4,-34.0,29.81,North,0,11.9,-999.0,1,-99.99,,,0.00,Acu-Link.com,2013-04-05 21:26:00,
2013-04-05 16:41:00,71.4,-34.0,29.80,West,270,5.3,-999.0,1,-99.99,,,0.00,Acu-Link.com,2013-04-05 21:41:00,
2013-04-05 16:57:00,70.5,-34.5,29.80,NNE,22,3.2,-999.0,1,-99.99,,,0.00,Acu-Link.com,2013-04-05 21:57:00,
2013-04-05 17:12:00,71.1,-34.2,29.80,NNW,337,6.8,-999.0,1,-99.99,,,0.00,Acu-Link.com,2013-04-05 22:12:00,
2013-04-05 17:27:00,71.1,-34.2,29.80,NE,45,5.8,-999.0,1,-99.99,,,0.00,Acu-Link.com,2013-04-05 22:27:00,
2013-04-05 17:42:00,70.9,-34.3,29.80,WNW,292,5.3,-999.0,1,-99.99,,,0.00,Acu-Link.com,2013-04-05 22:42:00,
2013-04-05 17:57:00,69.6,-35.1,29.80,North,0,8.9,-999.0,1,-99.99,,,0.00,Acu-Link.com,2013-04-05 22:57:00,
2013-04-05 18:13:00,68.4,-35.8,29.79,NNE,22,5.3,-999.0,1,-99.99,,,0.00,Acu-Link.com,2013-04-05 23:13:00,
2013-04-05 18:28:00,67.3,-36.4,29.79,West,270,3.7,-999.0,1,-99.99,,,0.00,Acu-Link.com,2013-04-05 23:28:00,
2013-04-05 18:43:00,67.1,-36.6,29.80,WNW,292,4.2,-999.0,1,-99.99,,,0.00,Acu-Link.com,2013-04-05 23:43:00,
2013-04-05 18:59:00,66.4,-37.0,29.80,NNE,22,4.2,-999.0,1,-99.99,,,0.00,Acu-Link.com,2013-04-05 23:59:00,
2013-04-05 19:29:00,62.8,-39.2,29.81,SW,225,0.0,-999.0,1,-99.99,,,0.00,Acu-Link.com,2013-04-06 00:29:00,
2013-04-05 19:44:00,59.5,-41.2,29.81,SSW,202,1.7,-999.0,1,-99.99,,,0.00,Acu-Link.com,2013-04-06 00:44:00,
2013-04-05 20:00:00,58.3,-41.9,29.82,SW,225,0.0,-999.0,1,-99.99,,,0.00,Acu-Link.com,2013-04-06 01:00:00,
2013-04-05 20:15:00,56.5,-43.0,29.82,SSW,202,0.0,-999.0,1,-99.99,,,0.00,Acu-Link.com,2013-04-06 01:15:00,
2013-04-05 20:30:00,55.4,-43.7,29.82,ESE,112,0.0,-999.0,1,-99.99,,,0.00,Acu-Link.com,2013-04-06 01:30:00,
2013-04-05 20:46:00,54.9,-44.0,29.82,WSW,247,0.0,-999.0,1,-99.99,,,0.00,Acu-Link.com,2013-04-06 01:46:00,
2013-04-05 21:16:00,52.7,-45.3,29.83,West,270,0.0,-999.0,1,-99.99,,,0.00,Acu-Link.com,2013-04-06 02:16:00,
2013-04-05 21:32:00,52.0,-45.7,29.84,SE,135,0.0,-999.0,1,-99.99,,,0.00,Acu-Link.com,2013-04-06 02:32:00,
2013-04-05 21:47:00,51.8,-45.8,29.84,ESE,112,0.0,-999.0,1,-99.99,,,0.00,Acu-Link.com,2013-04-06 02:47:00,
2013-04-05 22:02:00,51.6,-46.0,29.84,SW,225,0.0,-999.0,1,-99.99,,,0.00,Acu-Link.com,2013-04-06 03:02:00,
2013-04-05 22:17:00,50.9,-46.4,29.84,ENE,67,0.0,-999.0,1,-99.99,,,0.00,Acu-Link.com,2013-04-06 03:17:00,
2013-04-05 22:33:00,50.0,-46.9,29.85,SW,225,0.0,-999.0,1,-99.99,,,0.00,Acu-Link.com,2013-04-06 03:33:00,
2013-04-05 22:48:00,49.5,-47.3,29.85,SW,225,0.0,-999.0,1,-99.99,,,0.00,Acu-Link.com,2013-04-06 03:48:00,
2013-04-05 23:03:00,49.1,-47.5,29.85,SW,225,0.0,-999.0,1,-99.99,,,0.00,Acu-Link.com,2013-04-06 04:03:00,
2013-04-05 23:49:00,48.7,-19.2,29.85,East,90,0.0,-999.0,5,-99.99,,,0.00,Acu-Link.com,2013-04-06 04:49:00,